createdAt,value
2018-05-16T00:00:11.315Z,13.10
2018-05-16T00:02:45.859Z,13.23
2018-05-16T00:05:14.021Z,12.30
2018-05-16T00:07:57.953Z,13.40
2018-05-16T00:10:28.789Z,13.87
2018-05-16T00:12:57.050Z,13.63
2018-05-16T00:15:26.888Z,14.07
2018-05-16T00:17:55.144Z,13.57
2018-05-16T00:20:38.343Z,14.67
2018-05-16T00:23:06.500Z,15.47
2018-05-16T00:25:34.903Z,16.23
2018-05-16T00:28:03.024Z,16.60
2018-05-16T00:30:32.367Z,17.67
2018-05-16T00:33:00.472Z,17.50
2018-05-16T00:35:28.597Z,21.23
2018-05-16T00:37:56.722Z,19.63
2018-05-16T00:40:26.613Z,19.00
2018-05-16T00:42:54.886Z,20.67
2018-05-16T00:45:23.821Z,20.67
2018-05-16T00:47:52.873Z,23.57
2018-05-16T00:50:21.110Z,22.37
2018-05-16T00:52:50.335Z,22.80
2018-05-16T00:55:18.463Z,23.97
2018-05-16T00:57:47.513Z,24.67
2018-05-16T01:00:15.645Z,24.57
2018-05-16T01:02:43.880Z,24.43
2018-05-16T01:05:13.617Z,26.33
2018-05-16T01:07:42.512Z,26.77
2018-05-16T01:10:11.386Z,26.50
2018-05-16T01:12:41.407Z,28.03
2018-05-16T01:15:10.457Z,30.30
2018-05-16T01:17:38.592Z,28.80
2018-05-16T01:20:06.780Z,33.63
2018-05-16T01:22:34.942Z,31.57
2018-05-16T01:25:03.056Z,32.23
2018-05-16T01:27:31.293Z,36.27
2018-05-16T01:29:59.584Z,35.33
2018-05-16T01:32:28.476Z,34.97
2018-05-16T01:34:56.590Z,39.63
2018-05-16T01:37:24.715Z,37.47
2018-05-16T01:39:55.588Z,38.93
2018-05-16T01:42:24.274Z,38.03
2018-05-16T01:44:52.403Z,39.37
2018-05-16T01:47:20.644Z,39.57
2018-05-16T01:49:48.760Z,41.60
2018-05-16T01:52:16.899Z,43.70
2018-05-16T01:54:45.872Z,42.33
2018-05-16T01:57:13.983Z,44.67
2018-05-16T01:59:43.116Z,44.90
2018-05-16T02:02:11.982Z,46.43
2018-05-16T02:04:40.141Z,46.50
2018-05-16T02:07:09.042Z,46.70
2018-05-16T02:09:37.281Z,53.10
2018-05-16T02:12:07.684Z,49.70
2018-05-16T02:14:37.309Z,51.00
2018-05-16T02:17:05.545Z,50.23
2018-05-16T02:19:33.797Z,51.13
2018-05-16T02:22:01.924Z,56.80
2018-05-16T02:24:30.039Z,53.13
2018-05-16T02:26:58.179Z,55.57
2018-05-16T02:29:30.655Z,55.47
2018-05-16T02:31:59.489Z,53.40
2018-05-16T02:34:30.267Z,54.93
2018-05-16T02:36:58.367Z,58.20
2018-05-16T02:39:27.262Z,59.03
2018-05-16T02:41:56.147Z,60.90
2018-05-16T02:44:25.043Z,59.77
2018-05-16T02:46:54.304Z,62.60
2018-05-16T02:49:22.447Z,64.87
2018-05-16T02:51:50.587Z,72.97
2018-05-16T02:54:19.246Z,74.63
2018-05-16T02:56:47.293Z,74.43
2018-05-16T02:59:15.406Z,73.60
2018-05-16T03:01:43.692Z,79.27
2018-05-16T03:04:11.823Z,82.43
2018-05-16T03:06:39.977Z,74.93
2018-05-16T03:09:09.741Z,86.17
2018-05-16T03:11:37.857Z,85.97
2018-05-16T03:14:06.056Z,94.50
2018-05-16T03:16:34.177Z,95.10
2018-05-16T03:19:03.067Z,98.23
2018-05-16T03:21:31.954Z,94.10
2018-05-16T03:24:00.830Z,97.60
2018-05-16T03:26:30.229Z,102.60
2018-05-16T03:28:58.496Z,93.50
2018-05-16T03:31:26.593Z,101.77
2018-05-16T03:33:55.519Z,101.97
2018-05-16T03:36:23.682Z,106.23
2018-05-16T03:38:53.653Z,106.20
2018-05-16T03:41:23.349Z,113.67
2018-05-16T03:43:51.556Z,111.80
2018-05-16T03:46:20.560Z,112.30
2018-05-16T03:48:49.462Z,113.90
2018-05-16T03:51:17.590Z,129.40
2018-05-16T03:53:45.714Z,126.70
2018-05-16T03:56:13.851Z,125.70
2018-05-16T03:58:53.868Z,132.53
2018-05-16T04:01:47.834Z,126.43
2018-05-16T04:04:16.743Z,136.17
2018-05-16T04:06:44.869Z,139.87
2018-05-16T04:09:13.213Z,146.40
2018-05-16T04:11:41.338Z,141.27
2018-05-16T04:14:09.952Z,138.53
2018-05-16T04:16:38.103Z,144.77
2018-05-16T04:19:06.227Z,152.33
2018-05-16T04:21:35.416Z,132.93
2018-05-16T04:24:03.574Z,139.13
2018-05-16T04:26:33.998Z,138.03
2018-05-16T04:29:02.933Z,145.47
2018-05-16T04:31:31.101Z,134.80
2018-05-16T04:33:59.993Z,137.30
2018-05-16T04:36:29.037Z,134.20
2018-05-16T04:38:57.150Z,125.17
2018-05-16T04:41:26.648Z,127.10
2018-05-16T04:43:56.484Z,122.37
2018-05-16T04:46:25.382Z,113.03
2018-05-16T04:48:53.553Z,119.70
2018-05-16T04:51:22.550Z,109.47
2018-05-16T04:53:51.606Z,111.57
2018-05-16T04:56:19.797Z,104.90
2018-05-16T04:58:49.249Z,105.43
2018-05-16T05:01:17.352Z,107.13
2018-05-16T05:03:46.998Z,104.80
2018-05-16T05:06:15.906Z,98.97
2018-05-16T05:08:44.019Z,105.50
2018-05-16T05:11:12.133Z,100.80
2018-05-16T05:13:41.024Z,102.00
2018-05-16T05:16:09.189Z,101.13
2018-05-16T05:18:38.141Z,97.03
2018-05-16T05:21:06.971Z,97.90
2018-05-16T05:23:35.154Z,95.20
2018-05-16T05:26:04.036Z,96.10
2018-05-16T05:28:32.918Z,87.33
2018-05-16T05:31:01.815Z,93.13
2018-05-16T05:33:31.170Z,88.43
2018-05-16T05:35:59.295Z,81.77
2018-05-16T05:38:29.526Z,85.23
2018-05-16T05:40:58.581Z,83.75
2018-05-16T05:43:27.516Z,80.80
2018-05-16T05:45:56.284Z,76.07
2018-05-16T05:48:24.569Z,82.43
2018-05-16T05:50:53.472Z,80.70
2018-05-16T05:53:22.338Z,73.60
2018-05-16T05:55:50.574Z,69.03
2018-05-16T05:58:18.700Z,67.03
2018-05-16T06:00:47.612Z,67.53
2018-05-16T06:03:15.754Z,68.67
2018-05-16T06:05:44.655Z,69.97
2018-05-16T06:08:13.529Z,66.50
2018-05-16T06:10:41.765Z,70.47
2018-05-16T06:13:10.523Z,71.53
2018-05-16T06:15:38.640Z,72.17
2018-05-16T06:18:06.909Z,73.57
2018-05-16T06:20:35.058Z,75.70
2018-05-16T06:23:03.162Z,73.97
2018-05-16T06:25:31.278Z,72.30
2018-05-16T06:28:00.168Z,72.40
2018-05-16T06:30:28.418Z,70.43
2018-05-16T06:32:59.093Z,66.37
2018-05-16T06:35:27.239Z,69.20
2018-05-16T06:37:56.410Z,66.53
2018-05-16T06:40:28.322Z,61.00
2018-05-16T06:42:56.452Z,64.60
2018-05-16T06:45:26.086Z,61.43
2018-05-16T06:47:55.547Z,60.33
2018-05-16T06:50:24.077Z,62.80
2018-05-16T06:52:52.950Z,58.83
2018-05-16T06:55:22.953Z,58.30
2018-05-16T06:57:51.173Z,56.80
2018-05-16T07:00:19.436Z,53.90
2018-05-16T07:02:48.299Z,52.10
2018-05-16T07:05:16.913Z,52.53
2018-05-16T07:07:45.797Z,50.57
2018-05-16T07:10:14.685Z,49.93
2018-05-16T07:12:43.584Z,47.30
2018-05-16T07:15:12.473Z,46.73
2018-05-16T07:17:41.364Z,44.07
2018-05-16T07:20:11.643Z,45.87
2018-05-16T07:22:39.790Z,45.47
2018-05-16T07:25:07.934Z,42.23
2018-05-16T07:27:36.066Z,42.93
2018-05-16T07:30:04.187Z,43.10
2018-05-16T07:32:32.425Z,44.50
2018-05-16T07:35:00.204Z,42.70
2018-05-16T07:37:28.330Z,43.27
2018-05-16T07:39:57.675Z,40.77
2018-05-16T07:42:25.819Z,39.97
2018-05-16T07:44:54.326Z,38.53
2018-05-16T07:47:22.435Z,36.43
2018-05-16T07:49:50.564Z,34.93
2018-05-16T07:52:18.928Z,33.73
2018-05-16T07:54:47.250Z,30.40
2018-05-16T07:57:15.408Z,29.90
2018-05-16T07:59:43.600Z,31.40
2018-05-16T08:02:11.745Z,31.73
2018-05-16T08:04:39.868Z,31.03
2018-05-16T08:07:07.980Z,29.27
2018-05-16T08:09:36.110Z,29.73
2018-05-16T08:12:04.453Z,28.77
2018-05-16T08:14:32.577Z,28.30
2018-05-16T08:17:00.700Z,28.30
2018-05-16T08:19:30.339Z,27.93
2018-05-16T08:21:58.499Z,27.40
2018-05-16T08:24:26.742Z,28.67
2018-05-16T08:26:54.935Z,27.83
2018-05-16T08:29:23.812Z,25.20
2018-05-16T08:31:52.901Z,25.53
2018-05-16T08:34:21.046Z,25.10
2018-05-16T08:36:49.218Z,23.77
2018-05-16T08:39:18.469Z,24.57
2018-05-16T08:41:46.645Z,24.00
2018-05-16T08:44:15.585Z,22.73
2018-05-16T08:46:43.719Z,21.47
2018-05-16T08:49:12.705Z,21.47
2018-05-16T08:51:41.587Z,18.93
2018-05-16T08:54:09.749Z,19.20
2018-05-16T08:56:37.877Z,19.77
2018-05-16T08:59:06.089Z,19.60
2018-05-16T09:01:34.297Z,19.73
2018-05-16T09:04:04.698Z,19.37
2018-05-16T09:06:32.873Z,19.43
2018-05-16T09:09:02.485Z,19.33
2018-05-16T09:11:30.748Z,18.70
2018-05-16T09:13:58.870Z,19.23
2018-05-16T09:16:28.364Z,19.97
2018-05-16T09:18:58.156Z,19.00
2018-05-16T09:21:26.342Z,19.37
2018-05-16T09:23:55.232Z,18.10
2018-05-16T09:26:24.121Z,16.77
2018-05-16T09:28:52.996Z,14.53
2018-05-16T09:31:21.881Z,15.47
2018-05-16T09:33:50.488Z,15.67
2018-05-16T09:36:20.985Z,12.20
2018-05-16T09:38:50.607Z,13.90
2018-05-16T09:41:20.714Z,12.40
2018-05-16T09:43:49.240Z,13.00
2018-05-16T09:46:20.351Z,12.33
2018-05-16T09:48:48.469Z,13.60
2018-05-16T09:51:16.805Z,13.60
2018-05-16T09:53:44.925Z,11.03
2018-05-16T09:56:13.184Z,13.03
2018-05-16T09:58:42.182Z,13.67
2018-05-16T10:01:12.000Z,11.60
2018-05-16T10:03:40.115Z,11.70
2018-05-16T10:06:08.219Z,11.90
2018-05-16T10:08:37.104Z,10.80
2018-05-16T10:11:05.998Z,11.37
2018-05-16T10:13:34.868Z,15.40
2018-05-16T10:16:03.772Z,13.33
2018-05-16T10:18:32.652Z,14.37
2018-05-16T10:21:00.762Z,10.60
2018-05-16T10:26:04.930Z,10.97
2018-05-16T10:28:33.129Z,11.80
2018-05-16T10:31:01.370Z,14.67
2018-05-16T10:33:29.639Z,13.67
2018-05-16T10:35:57.762Z,12.10
2018-05-16T10:38:27.384Z,10.77
2018-05-16T10:40:56.378Z,11.20
2018-05-16T10:43:25.257Z,9.57
2018-05-16T10:45:54.138Z,10.20
2018-05-16T10:48:22.740Z,10.27
2018-05-16T10:50:50.937Z,9.53
2018-05-16T10:53:19.028Z,8.20
2018-05-16T10:55:47.367Z,9.33
2018-05-16T10:58:15.481Z,8.60
2018-05-16T11:00:43.575Z,8.50
2018-05-16T11:03:12.671Z,8.10
2018-05-16T11:05:41.710Z,8.67
2018-05-16T11:08:09.952Z,8.13
2018-05-16T11:10:38.062Z,10.27
2018-05-16T11:13:06.176Z,9.73
2018-05-16T11:15:34.277Z,8.13
2018-05-16T11:18:02.399Z,8.90
2018-05-16T11:20:30.527Z,10.77
2018-05-16T11:22:59.708Z,9.17
2018-05-16T11:25:29.767Z,8.20
2018-05-16T11:27:58.655Z,7.40
2018-05-16T11:30:27.521Z,9.67
2018-05-16T11:32:56.115Z,7.33
2018-05-16T11:35:24.998Z,7.90
2018-05-16T11:37:54.502Z,9.73
2018-05-16T11:40:23.372Z,8.90
2018-05-16T11:42:51.473Z,7.97
2018-05-16T11:45:20.462Z,11.80
2018-05-16T11:47:49.363Z,10.40
2018-05-16T11:50:18.247Z,9.80
2018-05-16T11:52:47.130Z,8.57
2018-05-16T11:55:15.235Z,8.67
2018-05-16T11:57:43.335Z,7.43
2018-05-16T12:00:11.444Z,7.23
2018-05-16T12:02:39.570Z,8.50
2018-05-16T12:05:07.686Z,8.47
2018-05-16T12:07:36.511Z,9.27
2018-05-16T12:10:05.453Z,8.10
2018-05-16T12:12:33.571Z,7.27
2018-05-16T12:15:01.726Z,7.47
2018-05-16T12:17:31.077Z,7.20
2018-05-16T12:19:59.279Z,7.57
2018-05-16T12:22:27.399Z,9.10
2018-05-16T12:24:56.268Z,7.50
2018-05-16T12:27:26.496Z,8.63
2018-05-16T12:29:55.377Z,7.40
2018-05-16T12:32:25.520Z,7.27
2018-05-16T12:34:54.693Z,6.73
2018-05-16T12:37:23.522Z,7.50
2018-05-16T12:39:51.648Z,6.53
2018-05-16T12:42:20.359Z,6.87
2018-05-16T12:44:48.511Z,7.60
2018-05-16T12:47:16.617Z,8.33
2018-05-16T12:49:46.376Z,8.57
2018-05-16T12:52:15.553Z,7.47
2018-05-16T12:54:43.563Z,10.37
2018-05-16T12:57:14.447Z,9.03
2018-05-16T12:59:44.005Z,9.07
2018-05-16T13:02:12.362Z,8.43
2018-05-16T13:04:40.464Z,9.00
2018-05-16T13:07:09.980Z,9.07
2018-05-16T13:09:38.052Z,9.13
2018-05-16T13:12:07.468Z,9.43
2018-05-16T13:14:35.987Z,10.37
2018-05-16T13:17:04.882Z,9.10
2018-05-16T13:19:34.101Z,8.70
2018-05-16T13:22:03.919Z,9.23
2018-05-16T13:24:32.850Z,8.23
2018-05-16T13:27:01.181Z,8.23
2018-05-16T13:29:29.324Z,8.70
2018-05-16T13:31:57.636Z,8.00
2018-05-16T13:34:25.770Z,10.30
2018-05-16T13:36:53.871Z,13.30
2018-05-16T13:39:22.020Z,13.97
2018-05-16T13:41:50.147Z,14.77
2018-05-16T13:44:19.022Z,15.43
2018-05-16T13:46:48.818Z,15.77
2018-05-16T13:49:17.001Z,15.77
2018-05-16T13:51:45.277Z,16.00
2018-05-16T13:54:13.851Z,15.03
2018-05-16T13:56:43.272Z,16.70
2018-05-16T13:59:12.014Z,16.60
2018-05-16T14:01:40.159Z,16.27
2018-05-16T14:04:09.783Z,17.67
2018-05-16T14:06:37.912Z,15.97
2018-05-16T14:09:06.791Z,17.57
2018-05-16T14:11:34.935Z,17.27
2018-05-16T14:14:03.244Z,17.43
2018-05-16T14:16:31.445Z,17.23
2018-05-16T14:18:59.571Z,17.87
2018-05-16T14:21:27.690Z,17.80
2018-05-16T14:23:56.591Z,20.17
2018-05-16T14:26:24.686Z,26.67
2018-05-16T14:28:52.803Z,24.57
2018-05-16T14:31:20.917Z,29.37
2018-05-16T14:33:49.254Z,37.03
2018-05-16T14:36:17.550Z,33.03
2018-05-16T14:38:46.611Z,30.67
2018-05-16T14:41:14.825Z,34.87
2018-05-16T14:43:43.104Z,33.97
2018-05-16T14:46:11.968Z,31.80
2018-05-16T14:48:40.854Z,31.10
2018-05-16T14:51:10.279Z,29.97
2018-05-16T14:53:39.152Z,29.70
2018-05-16T14:56:08.048Z,31.10
2018-05-16T14:58:36.978Z,24.00
2018-05-16T15:01:05.938Z,31.90
2018-05-16T15:03:35.331Z,29.73
2018-05-16T15:06:03.432Z,28.07
2018-05-16T15:08:31.678Z,27.60
2018-05-16T15:11:00.574Z,26.27
2018-05-16T15:13:29.447Z,28.07
2018-05-16T15:15:57.636Z,24.77
2018-05-16T15:18:25.971Z,32.57
2018-05-16T15:20:54.128Z,25.70
2018-05-16T15:23:22.451Z,29.70
2018-05-16T15:25:50.635Z,29.43
2018-05-16T15:28:18.932Z,27.13
2018-05-16T15:30:49.091Z,24.33
2018-05-16T15:33:18.020Z,24.30
2018-05-16T15:35:47.859Z,26.33
2018-05-16T15:38:16.941Z,27.23
2018-05-16T15:40:45.152Z,26.90
2018-05-16T15:43:13.332Z,30.43
2018-05-16T15:45:41.451Z,23.90
2018-05-16T15:48:09.754Z,26.97
2018-05-16T15:50:38.627Z,27.50
2018-05-16T15:53:07.515Z,27.67
2018-05-16T15:55:35.748Z,23.87
2018-05-16T15:58:03.862Z,24.67
2018-05-16T16:00:33.035Z,26.47
2018-05-16T16:03:02.542Z,28.33
2018-05-16T16:05:31.443Z,24.33
2018-05-16T16:08:01.094Z,26.17
2018-05-16T16:10:29.960Z,25.90
2018-05-16T16:12:58.847Z,25.52
2018-05-16T16:15:29.280Z,28.17
2018-05-16T16:17:58.175Z,26.53
2018-05-16T16:20:26.638Z,30.03
2018-05-16T16:22:56.250Z,25.53
2018-05-16T16:25:25.301Z,30.87
2018-05-16T16:27:53.551Z,24.37
2018-05-16T16:30:23.422Z,28.20
2018-05-16T16:32:51.569Z,23.27
2018-05-16T16:35:19.808Z,25.27
2018-05-16T16:37:49.387Z,26.73
2018-05-16T16:40:17.574Z,24.17
2018-05-16T16:42:46.850Z,20.17
2018-05-16T16:45:15.086Z,18.40
2018-05-16T16:47:43.441Z,16.87
2018-05-16T16:50:12.361Z,14.80
2018-05-16T16:52:40.679Z,15.73
2018-05-16T16:55:08.789Z,23.63
2018-05-16T16:57:37.053Z,21.13
2018-05-16T17:00:07.760Z,22.00
2018-05-16T17:02:36.022Z,19.57
2018-05-16T17:05:04.128Z,19.10
2018-05-16T17:07:33.032Z,22.33
2018-05-16T17:10:01.928Z,20.83
2018-05-16T17:12:30.162Z,21.73
2018-05-16T17:14:58.889Z,22.93
2018-05-16T17:17:27.168Z,18.87
2018-05-16T17:19:58.005Z,20.13
2018-05-16T17:22:26.119Z,16.57
2018-05-16T17:24:55.000Z,22.17
2018-05-16T17:27:23.107Z,21.20
2018-05-16T17:29:51.251Z,25.27
2018-05-16T17:32:19.605Z,22.87
2018-05-16T17:34:47.727Z,18.77
2018-05-16T17:37:15.836Z,19.73
2018-05-16T17:39:44.080Z,19.27
2018-05-16T17:42:12.192Z,22.03
2018-05-16T17:44:40.405Z,20.20
2018-05-16T17:47:08.538Z,24.00
2018-05-16T17:49:36.962Z,22.70
2018-05-16T17:52:05.625Z,22.37
2018-05-16T17:54:33.802Z,23.70
2018-05-16T17:57:02.190Z,23.47
2018-05-16T17:59:30.425Z,21.50
2018-05-16T18:01:58.556Z,21.87
2018-05-16T18:04:28.358Z,25.07
2018-05-16T18:06:56.568Z,23.13
2018-05-16T18:09:25.530Z,25.37
2018-05-16T18:11:53.652Z,27.43
2018-05-16T18:14:33.768Z,26.70
2018-05-16T18:17:13.667Z,24.97
2018-05-16T18:19:41.796Z,25.33
2018-05-16T18:22:09.908Z,22.50
2018-05-16T18:24:38.217Z,23.73
2018-05-16T18:27:06.375Z,21.97
2018-05-16T18:29:35.529Z,26.57
2018-05-16T18:32:03.673Z,24.33
2018-05-16T18:34:31.807Z,21.27
2018-05-16T18:37:01.976Z,24.50
2018-05-16T18:39:30.989Z,19.83
2018-05-16T18:41:59.807Z,21.47
2018-05-16T18:44:28.124Z,18.20
2018-05-16T18:46:56.248Z,26.37
2018-05-16T18:49:24.409Z,22.20
2018-05-16T18:51:52.534Z,24.93
2018-05-16T18:54:21.376Z,21.23
2018-05-16T18:56:50.242Z,18.43
2018-05-16T18:59:19.215Z,25.77
2018-05-16T19:01:47.335Z,22.20
2018-05-16T19:04:15.458Z,22.53
2018-05-16T19:06:45.134Z,21.57
2018-05-16T19:09:13.259Z,27.23
2018-05-16T19:11:42.989Z,20.93
2018-05-16T19:14:11.982Z,25.35
2018-05-16T19:16:40.889Z,22.83
2018-05-16T19:19:09.047Z,22.67
2018-05-16T19:21:37.929Z,23.57
2018-05-16T19:24:06.943Z,27.23
2018-05-16T19:26:35.726Z,18.37
2018-05-16T19:29:04.586Z,18.90
2018-05-16T19:31:33.517Z,24.53
2018-05-16T19:34:01.708Z,20.43
2018-05-16T19:36:31.235Z,23.27
2018-05-16T19:38:59.374Z,23.13
2018-05-16T19:41:27.520Z,21.47
2018-05-16T19:43:56.435Z,19.63
2018-05-16T19:46:24.562Z,20.43
2018-05-16T19:48:52.674Z,21.73
2018-05-16T19:51:22.424Z,21.03
2018-05-16T19:53:51.046Z,21.80
2018-05-16T19:56:19.212Z,23.37
2018-05-16T19:58:50.145Z,17.57
2018-05-16T20:01:18.408Z,18.77
2018-05-16T20:03:47.650Z,20.27
2018-05-16T20:06:16.514Z,14.87
2018-05-16T20:08:46.133Z,21.73
2018-05-16T20:11:15.016Z,16.77
2018-05-16T20:13:43.180Z,17.43
2018-05-16T20:16:11.358Z,19.10
2018-05-16T20:18:39.448Z,18.53
2018-05-16T20:21:08.336Z,17.43
2018-05-16T20:23:37.010Z,25.07
2018-05-16T20:26:06.169Z,20.63
2018-05-16T20:28:35.546Z,18.93
2018-05-16T20:31:03.673Z,19.30
2018-05-16T20:33:33.345Z,19.77
2018-05-16T20:36:01.471Z,19.63
2018-05-16T20:38:30.606Z,22.07
2018-05-16T20:40:59.239Z,20.93
2018-05-16T20:43:28.879Z,23.83
2018-05-16T20:45:58.449Z,27.00
2018-05-16T20:48:26.661Z,22.67
2018-05-16T20:50:55.274Z,23.80
2018-05-16T20:53:23.430Z,22.50
2018-05-16T20:55:51.555Z,19.63
2018-05-16T20:58:19.766Z,21.70
2018-05-16T21:00:47.923Z,21.90
2018-05-16T21:03:17.008Z,23.50
2018-05-16T21:05:47.419Z,21.37
2018-05-16T21:08:34.812Z,24.20
2018-05-16T21:11:03.984Z,22.20
2018-05-16T21:13:31.707Z,21.27
2018-05-16T21:16:02.341Z,27.17
2018-05-16T21:18:29.952Z,20.77
2018-05-16T21:20:57.768Z,21.73
2018-05-16T21:23:26.942Z,28.20
2018-05-16T21:25:55.162Z,24.53
2018-05-16T21:28:24.129Z,23.07
2018-05-16T21:30:52.290Z,23.77
2018-05-16T21:33:20.513Z,25.57
2018-05-16T21:35:49.416Z,28.60
2018-05-16T21:38:19.013Z,24.90
2018-05-16T21:40:47.924Z,24.23
2018-05-16T21:43:16.246Z,26.07
2018-05-16T21:45:44.519Z,22.40
2018-05-16T21:48:12.729Z,26.40
2018-05-16T21:50:41.607Z,29.67
2018-05-16T21:53:10.510Z,26.30
2018-05-16T21:55:38.714Z,19.13
2018-05-16T21:58:06.875Z,27.30
2018-05-16T22:00:34.986Z,24.97
2018-05-16T22:03:04.099Z,21.10
2018-05-16T22:05:32.218Z,28.00
2018-05-16T22:08:00.331Z,24.23
2018-05-16T22:10:28.457Z,24.30
2018-05-16T22:12:57.577Z,24.37
2018-05-16T22:15:26.432Z,24.70
2018-05-16T22:17:55.304Z,24.30
2018-05-16T22:20:23.419Z,27.67
2018-05-16T22:22:51.552Z,22.47
2018-05-16T22:25:20.559Z,21.67
2018-05-16T22:27:49.535Z,23.93
2018-05-16T22:30:18.040Z,25.20
2018-05-16T22:32:54.004Z,24.50
2018-05-16T22:35:27.768Z,22.20
2018-05-16T22:38:03.103Z,23.27
2018-05-16T22:40:37.009Z,24.10
2018-05-16T22:43:04.636Z,22.20
2018-05-16T22:45:35.311Z,20.70
2018-05-16T22:48:04.953Z,21.77
2018-05-16T22:50:36.970Z,22.73
2018-05-16T22:53:05.182Z,29.00
2018-05-16T22:55:34.070Z,26.93
2018-05-16T22:58:02.948Z,25.73
2018-05-16T23:00:31.365Z,26.93
2018-05-16T23:02:59.633Z,18.83
2018-05-16T23:05:27.732Z,21.07
2018-05-16T23:07:57.231Z,23.17
2018-05-16T23:10:25.324Z,25.23
2018-05-16T23:12:53.439Z,23.73
2018-05-16T23:15:22.340Z,24.10
2018-05-16T23:17:50.956Z,25.00
2018-05-16T23:20:19.469Z,22.67
2018-05-16T23:22:47.657Z,26.43
2018-05-16T23:25:15.810Z,24.63
2018-05-16T23:27:43.920Z,25.40
2018-05-16T23:30:12.824Z,20.57
2018-05-16T23:32:41.705Z,25.10
2018-05-16T23:35:09.817Z,23.30
2018-05-16T23:37:38.776Z,24.17
2018-05-16T23:40:07.647Z,22.40
2018-05-16T23:42:35.762Z,24.27
2018-05-16T23:45:04.012Z,24.77
2018-05-16T23:47:32.895Z,25.63
2018-05-16T23:50:03.363Z,22.77
2018-05-16T23:52:31.508Z,27.60
2018-05-16T23:55:01.706Z,27.33
2018-05-16T23:57:29.834Z,23.73
2018-05-16T23:59:58.098Z,26.73
